Milan — YT2484 — position and weather

sailwx.info

Track history (hours):
 
Tides and Currents Weather Stations Pressure Air Temp Water Temp Dewpoint Dewpoint Depression Visibility Wind Speed Wind Dir Waves Ship Positions

Milan

Last reported at 2018-Jul-23 06:01 UTC. Time now 2018-Jul-23 05:58 UTC.
Position N 44°50' E 020°30'.

Length 29 m.

Type: Cargo ship. MMSI: 279202484.

Date/timePositionNaut miles runAvg speedWind from/ knotsBaromVisibWave heightAir tempDewpointWater temp
2018-Jul-23 06:01N 44°50' E 020°30'2 3.2
2018-Jul-23 05:31N 44°50' E 020°33'2 3.2
2018-Jul-23 05:01N 44°51' E 020°35'2 3.1
2018-Jul-23 04:31N 44°51' E 020°37'2 3.0
2018-Jul-23 04:00N 44°50' E 020°38'1 3.0
2018-Jul-23 03:30N 44°49' E 020°39'2 3.2
2018-Jul-23 03:00N 44°47' E 020°38'2 3.2
2018-Jul-23 02:30N 44°46' E 020°38'2 3.1
2018-Jul-23 02:00N 44°45' E 020°39'10 2.9
2018-Jul-22 22:37N 44°40' E 020°51'0 3.4
2018-Jul-22 22:30N 44°40' E 020°52'2 3.2
2018-Jul-22 22:00N 44°40' E 020°54'2 3.2
2018-Jul-22 21:30N 44°41' E 020°56'2 3.3
2018-Jul-22 21:00N 44°42' E 020°58'2 3.3
2018-Jul-22 20:30N 44°43' E 020°60'2 3.1
2018-Jul-22 20:00N 44°43' E 021°02'2 3.2
2018-Jul-22 19:30N 44°43' E 021°04'2 3.1
2018-Jul-22 19:00N 44°44' E 021°06'2 3.1
2018-Jul-22 18:30N 44°44' E 021°08'4 0.3
2018-Jul-22 03:30N 44°43' E 021°03'3 4.8
2018-Jul-22 02:51N 44°42' E 020°58'11 2.4
2018-Jul-21 22:12N 44°42' E 020°43'1 5.0
2018-Jul-21 22:00N 44°43' E 020°42'2 4.9
2018-Jul-21 21:30N 44°44' E 020°40'2 4.7
2018-Jul-21 21:00N 44°46' E 020°38'2 3.4
2018-Jul-21 20:30N 44°48' E 020°38'0 0.9
2018-Jul-21 20:00N 44°48' E 020°38'1 1.5
2018-Jul-21 19:30N 44°49' E 020°37'1 2.4
2018-Jul-21 19:00N 44°48' E 020°38'2 3.3
2018-Jul-21 18:30N 44°49' E 020°39'2 5.0
2018-Jul-21 18:01N 44°51' E 020°37'3 5.4
2018-Jul-21 17:31N 44°50' E 020°33'2 4.7
2018-Jul-21 17:01N 44°50' E 020°30'1 1.8
2018-Jul-21 16:31N 44°49' E 020°31'0 0.0
2018-Jul-21 16:01N 44°49' E 020°31'0 0.0
2018-Jul-21 15:31N 44°49' E 020°31'0 0.6
2018-Jul-21 15:01N 44°50' E 020°31'2 3.8
2018-Jul-21 14:31N 44°50' E 020°28'2 3.8
2018-Jul-21 14:01N 44°48' E 020°27'2 5.0
2018-Jul-21 13:31N 44°48' E 020°23'3 5.1
2018-Jul-21 13:01N 44°46' E 020°21'2 3.0
2018-Jul-21 12:30N 44°45' E 020°19'0 0.1
2018-Jul-21 12:00N 44°45' E 020°19'0 0.0
2018-Jul-21 11:31N 44°45' E 020°19'0 0.0
2018-Jul-21 11:01N 44°45' E 020°19'0 0.0
2018-Jul-21 10:30N 44°45' E 020°19'0 0.0
2018-Jul-21 10:00N 44°45' E 020°19'0 0.3
2018-Jul-21 09:31N 44°45' E 020°19'0 0.4
2018-Jul-21 09:01N 44°45' E 020°19'0 0.0
2018-Jul-21 08:30N 44°45' E 020°19'0 0.0
2018-Jul-21 08:00N 44°45' E 020°19'0 0.0
2018-Jul-21 07:30N 44°45' E 020°19'0 0.0
2018-Jul-21 07:00N 44°45' E 020°19'1 1.4
2018-Jul-21 06:31N 44°45' E 020°20'2 3.1
2018-Jul-21 06:01N 44°46' E 020°21'2 3.2
2018-Jul-21 05:31N 44°47' E 020°23'1 2.9
2018-Jul-21 05:01N 44°48' E 020°25'1 2.9
2018-Jul-21 04:30N 44°48' E 020°26'1 2.7
2018-Jul-21 04:01N 44°50' E 020°27'1 2.5
2018-Jul-21 03:31N 44°50' E 020°28'1 2.6
2018-Jul-21 03:01N 44°50' E 020°30'0 0.1
2018-Jul-21 02:31N 44°50' E 020°30'2 3.2
2018-Jul-21 02:01N 44°50' E 020°28'2 3.6
2018-Jul-21 01:30N 44°48' E 020°27'2 4.6
2018-Jul-21 01:01N 44°48' E 020°24'2 4.6
2018-Jul-21 00:31N 44°46' E 020°21'2 3.9
2018-Jul-21 00:01N 44°45' E 020°19'0 0.5
2018-Jul-20 23:31N 44°45' E 020°19'0 0.0
2018-Jul-20 23:00N 44°45' E 020°19'0 0.0
2018-Jul-20 22:30N 44°45' E 020°19'0 0.0
2018-Jul-20 22:00N 44°45' E 020°19'0 0.0
2018-Jul-20 21:31N 44°45' E 020°19'0 0.3
2018-Jul-20 21:00N 44°45' E 020°19'0 0.3
2018-Jul-20 20:30N 44°45' E 020°19'0 0.0
2018-Jul-20 20:00N 44°45' E 020°19'0 0.0
2018-Jul-20 19:30N 44°45' E 020°19'0 0.0
2018-Jul-20 19:00N 44°45' E 020°19'0 0.7
2018-Jul-20 18:31N 44°45' E 020°19'0 0.3
2018-Jul-20 18:01N 44°45' E 020°19'0 0.5
2018-Jul-20 17:30N 44°45' E 020°20'0 0.0
2018-Jul-20 17:01N 44°45' E 020°20'0 0.0
2018-Jul-20 16:31N 44°45' E 020°20'0 0.0
2018-Jul-20 16:01N 44°45' E 020°20'0 0.0
2018-Jul-20 15:31N 44°45' E 020°20'0 0.0
2018-Jul-20 15:00N 44°45' E 020°20'0 0.0
2018-Jul-20 14:30N 44°45' E 020°20'0 0.0
2018-Jul-20 14:00N 44°45' E 020°20'0 0.0
2018-Jul-20 13:30N 44°45' E 020°20'0 0.0
2018-Jul-20 13:00N 44°45' E 020°20'0 0.0
2018-Jul-20 12:31N 44°45' E 020°20'0 0.0
2018-Jul-20 12:00N 44°45' E 020°20'0 0.0
2018-Jul-20 11:31N 44°45' E 020°20'0 0.0
2018-Jul-20 11:01N 44°45' E 020°20'0 0.0
2018-Jul-20 10:31N 44°45' E 020°20'0 0.0
2018-Jul-20 10:00N 44°45' E 020°20'0 0.0
2018-Jul-20 09:31N 44°45' E 020°20'0 0.0
2018-Jul-20 09:01N 44°45' E 020°20'0 0.0
2018-Jul-20 08:31N 44°45' E 020°20'0 0.0
2018-Jul-20 08:01N 44°45' E 020°20'0 0.4
2018-Jul-20 07:30N 44°45' E 020°20'0 0.9
2018-Jul-20 07:00N 44°45' E 020°19'1 2.8
2018-Jul-20 06:30N 44°46' E 020°21'1 3.0
2018-Jul-20 06:00N 44°47' E 020°22'2 3.0
2018-Jul-20 05:31N 44°46' E 020°21'1 2.3
2018-Jul-20 05:01N 44°45' E 020°20'0 0.0
2018-Jul-20 04:31N 44°45' E 020°20'0 0.0
2018-Jul-20 04:00N 44°45' E 020°20'0 0.8
2018-Jul-20 03:30N 44°45' E 020°20'2 3.4
2018-Jul-20 03:01N 44°46' E 020°21'2 3.4
2018-Jul-20 02:30N 44°48' E 020°23'2 3.2
2018-Jul-20 02:01N 44°48' E 020°25'1 2.9
2018-Jul-20 01:31N 44°49' E 020°27'1 2.5
2018-Jul-20 01:00N 44°50' E 020°27'2 3.0
2018-Jul-20 00:30N 44°50' E 020°29'2 3.1
2018-Jul-20 00:00N 44°50' E 020°32'2 3.1
2018-Jul-19 23:30N 44°51' E 020°34'1 2.8
2018-Jul-19 23:01N 44°51' E 020°35'1 2.9
2018-Jul-19 22:31N 44°51' E 020°37'2 3.0
2018-Jul-19 21:59N 44°50' E 020°39'1 3.1
2018-Jul-19 21:31N 44°48' E 020°38'2 3.2
2018-Jul-19 21:01N 44°47' E 020°38'2 3.0
2018-Jul-19 20:30N 44°45' E 020°38'1 3.0
2018-Jul-19 20:01N 44°44' E 020°40'1 3.0
2018-Jul-19 19:31N 44°43' E 020°41'2 3.0
2018-Jul-19 19:01N 44°42' E 020°42'2 3.1
2018-Jul-19 18:31N 44°41' E 020°43'1 1.0
2018-Jul-19 17:52N 44°40' E 020°44'0 0.0
2018-Jul-19 17:25N 44°40' E 020°44'0 0.0
2018-Jul-19 16:58N 44°40' E 020°44'0 0.0
2018-Jul-19 16:24N 44°40' E 020°44'0 0.0
2018-Jul-19 16:00N 44°40' E 020°44'0 0.4
2018-Jul-19 15:30N 44°40' E 020°44'1 2.1
2018-Jul-19 15:00N 44°40' E 020°45'1 2.2
2018-Jul-19 14:31N 44°39' E 020°47'2 2.0
2018-Jul-19 13:29N 44°39' E 020°50'1 2.4
2018-Jul-19 13:01N 44°40' E 020°51'1 2.3
2018-Jul-19 12:31N 44°40' E 020°53'1 2.3
2018-Jul-19 12:01N 44°40' E 020°54'1 2.1
2018-Jul-19 11:30N 44°41' E 020°56'1 2.3
2018-Jul-19 11:00N 44°42' E 020°57'1 2.3
2018-Jul-19 10:31N 44°42' E 020°58'1 2.2
2018-Jul-19 10:01N 44°43' E 020°59'1 2.0
2018-Jul-19 09:31N 44°43' E 021°01'1 2.0
2018-Jul-19 09:01N 44°43' E 021°02'1 2.0
2018-Jul-19 08:31N 44°43' E 021°03'1 2.3
2018-Jul-19 08:00N 44°43' E 021°05'14 0.9
2018-Jul-18 15:50N 44°47' E 021°24'2 3.5
2018-Jul-18 15:18N 44°46' E 021°27'2 3.3
2018-Jul-18 14:40N 44°46' E 021°29'1 3.7
2018-Jul-18 14:29N 44°46' E 021°30'1 0.5
2018-Jul-18 11:27N 44°46' E 021°32'3 3.2
2018-Jul-18 10:30N 44°45' E 021°36'1 1.2
2018-Jul-18 09:17N 44°43' E 021°37'0 1.1
2018-Jul-18 09:00N 44°44' E 021°37'2 1.3
2018-Jul-18 07:34N 44°42' E 021°39'0 0.0
2018-Jul-18 07:31N 44°42' E 021°39'0 0.0
2018-Jul-18 06:28N 44°42' E 021°39'1 0.5
2018-Jul-18 05:16N 44°43' E 021°38'1 3.3
2018-Jul-18 05:01N 44°43' E 021°37'1 1.1
2018-Jul-18 04:11N 44°44' E 021°37'0 0.0
2018-Jul-18 04:00N 44°44' E 021°37'1 0.5
2018-Jul-18 01:08N 44°43' E 021°38'1 4.2
2018-Jul-18 01:01N 44°42' E 021°39'0 0.2
2018-Jul-18 00:31N 44°42' E 021°39'0 0.0
2018-Jul-18 00:01N 44°42' E 021°39'0 0.0
2018-Jul-17 23:30N 44°42' E 021°39'0 0.0
2018-Jul-17 23:01N 44°42' E 021°39'0 0.0
2018-Jul-17 22:31N 44°42' E 021°39'2 2.1
2018-Jul-17 21:46N 44°43' E 021°37'1 2.1
2018-Jul-17 21:31N 44°44' E 021°37'0 0.2
2018-Jul-17 21:01N 44°44' E 021°37'0 0.0
2018-Jul-17 20:31N 44°44' E 021°37'0 0.0
2018-Jul-17 20:01N 44°44' E 021°37'0 0.0
2018-Jul-17 19:31N 44°44' E 021°37'0 0.0
2018-Jul-17 19:01N 44°44' E 021°37'0 0.0
2018-Jul-17 18:29N 44°44' E 021°37'0 0.0
2018-Jul-17 18:01N 44°44' E 021°37'0 0.0
2018-Jul-17 17:30N 44°44' E 021°37'0 0.1
2018-Jul-17 12:26N 44°43' E 021°37'0 0.0
2018-Jul-17 12:01N 44°43' E 021°37'0 0.5
2018-Jul-17 11:31N 44°44' E 021°37'1 1.1
2018-Jul-17 11:01N 44°44' E 021°36'2 4.3
2018-Jul-17 10:31N 44°46' E 021°35'3 3.3
2018-Jul-17 09:37N 44°46' E 021°31'0 0.0
2018-Jul-17 09:30N 44°46' E 021°31'1 0.1
2018-Jul-16 19:36N 44°46' E 021°29'0 4.7
2018-Jul-16 19:30N 44°47' E 021°28'2 4.5
2018-Jul-16 18:59N 44°46' E 021°25'32 1.9
2018-Jul-16 01:52N 44°44' E 020°40'3 4.5
2018-Jul-16 01:14N 44°47' E 020°38'1 4.7
2018-Jul-16 01:00N 44°48' E 020°38'2 4.6
2018-Jul-16 00:30N 44°50' E 020°39'1 1.5
2018-Jul-16 00:00N 44°51' E 020°38'0 0.9
2018-Jul-15 23:29N 44°51' E 020°38'0 0.9
2018-Jul-15 23:00N 44°51' E 020°38'0 0.1
2018-Jul-15 20:16N 44°51' E 020°38'0 0.2
2018-Jul-15 20:00N 44°51' E 020°38'0 0.6
2018-Jul-15 19:30N 44°51' E 020°38'0 0.7
2018-Jul-15 19:01N 44°51' E 020°38'0 0.0
2018-Jul-15 18:31N 44°51' E 020°38'0 0.0
2018-Jul-15 18:00N 44°51' E 020°38'0 0.0
2018-Jul-15 17:30N 44°51' E 020°38'0 0.0
2018-Jul-15 17:00N 44°51' E 020°38'0 0.1
2018-Jul-15 16:30N 44°51' E 020°38'1 1.1
2018-Jul-15 16:01N 44°51' E 020°38'0 0.4
2018-Jul-15 15:31N 44°51' E 020°38'0 0.0
2018-Jul-15 15:00N 44°51' E 020°38'0 0.0
2018-Jul-15 14:31N 44°51' E 020°38'0 0.0
2018-Jul-15 14:00N 44°51' E 020°38'0 0.0
2018-Jul-15 13:31N 44°51' E 020°38'0 0.0
2018-Jul-15 13:01N 44°51' E 020°38'0 0.0
2018-Jul-15 12:30N 44°51' E 020°38'1 2.7
2018-Jul-15 12:01N 44°50' E 020°39'2 3.1
2018-Jul-15 11:30N 44°48' E 020°38'2 3.1
2018-Jul-15 11:01N 44°47' E 020°38'1 3.0
2018-Jul-15 10:31N 44°45' E 020°38'2 3.1
2018-Jul-15 10:01N 44°44' E 020°40'2 3.0
2018-Jul-15 09:30N 44°43' E 020°42'3 3.2
2018-Jul-15 08:28N 44°40' E 020°44'1 3.2
2018-Jul-15 08:01N 44°40' E 020°46'2 3.2
2018-Jul-15 07:30N 44°40' E 020°48'2 3.3
2018-Jul-15 07:00N 44°40' E 020°51'2 3.4
2018-Jul-15 06:31N 44°40' E 020°53'6 3.1
2018-Jul-15 04:39N 44°43' E 020°60'0 2.8
2018-Jul-15 04:29N 44°43' E 021°01'1 3.0
2018-Jul-15 04:01N 44°43' E 021°02'9 2.9
2018-Jul-15 00:45N 44°47' E 021°14'3 3.3
2018-Jul-14 23:48N 44°49' E 021°18'1 3.5
2018-Jul-14 23:29N 44°49' E 021°20'9 1.0
2018-Jul-14 15:02N 44°45' E 021°09'12 5.5
2018-Jul-14 12:52N 44°40' E 020°54'2 6.0
2018-Jul-14 12:30N 44°39' E 020°51'3 6.0
2018-Jul-14 12:00N 44°40' E 020°47'3 5.3
2018-Jul-14 11:30N 44°41' E 020°43'1 1.2
2018-Jul-14 10:59N 44°40' E 020°44'0 0.0
2018-Jul-14 10:27N 44°40' E 020°44'0 0.0
2018-Jul-14 09:57N 44°40' E 020°44'1 1.9
2018-Jul-14 09:30N 44°41' E 020°43'3 5.4
2018-Jul-14 09:00N 44°43' E 020°41'3 5.5
2018-Jul-14 08:30N 44°45' E 020°38'3 5.2
2018-Jul-14 08:00N 44°48' E 020°38'3 5.3
2018-Jul-14 07:30N 44°50' E 020°39'3 5.1
2018-Jul-14 07:00N 44°51' E 020°35'3 5.7
2018-Jul-14 06:30N 44°50' E 020°32'1 2.8
2018-Jul-14 06:01N 44°50' E 020°30'1 2.6
2018-Jul-14 05:31N 44°50' E 020°28'3 6.5
2018-Jul-14 05:00N 44°51' E 020°24'3 6.4
2018-Jul-14 04:30N 44°54' E 020°21'3 6.4
2018-Jul-14 04:00N 44°56' E 020°18'3 6.0
2018-Jul-14 03:30N 44°59' E 020°18'3 6.3
2018-Jul-14 03:00N 45°01' E 020°22'3 6.3
2018-Jul-14 02:30N 45°04' E 020°21'3 6.9
2018-Jul-14 02:00N 45°07' E 020°18'3 5.7
2018-Jul-14 01:30N 45°09' E 020°17'2 4.2
2018-Jul-14 01:00N 45°11' E 020°19'8 4.8
2018-Jul-13 23:18N 45°19' E 020°15'1 4.1
2018-Jul-13 23:00N 45°20' E 020°16'2 4.6
2018-Jul-13 22:30N 45°22' E 020°14'2 4.5
2018-Jul-13 22:00N 45°24' E 020°12'0 0.2
2018-Jul-13 21:30N 45°24' E 020°12'0 0.0
2018-Jul-13 21:00N 45°24' E 020°12'0 0.0
2018-Jul-13 20:30N 45°24' E 020°12'0 0.0
2018-Jul-13 20:00N 45°24' E 020°12'0 0.1
2018-Jul-13 19:30N 45°24' E 020°12'0 0.0
2018-Jul-13 19:00N 45°24' E 020°12'0 0.2
2018-Jul-13 18:30N 45°24' E 020°12'0 0.0
2018-Jul-13 18:00N 45°24' E 020°12'0 0.1
2018-Jul-13 17:30N 45°24' E 020°12'1 1.7
2018-Jul-13 17:00N 45°23' E 020°12'1 2.9
2018-Jul-13 16:31N 45°22' E 020°14'2 3.1
2018-Jul-13 16:00N 45°21' E 020°15'1 2.1
2018-Jul-13 15:30N 45°20' E 020°16'7 2.5
2018-Jul-13 12:49N 45°14' E 020°19'1 3.0
2018-Jul-13 12:30N 45°13' E 020°19'2 3.0
2018-Jul-13 11:57N 45°11' E 020°18'1 2.9
2018-Jul-13 11:28N 45°10' E 020°17'3 2.6
2018-Jul-13 10:24N 45°08' E 020°17'1 2.1
2018-Jul-13 10:00N 45°07' E 020°17'1 2.3
2018-Jul-13 09:29N 45°06' E 020°18'2 1.7
2018-Jul-13 08:06N 45°04' E 020°20'0 2.2
2018-Jul-13 07:53N 45°04' E 020°21'1 2.1
2018-Jul-13 07:30N 45°03' E 020°21'1 2.2
2018-Jul-13 07:00N 45°02' E 020°22'1 1.9
2018-Jul-13 06:30N 45°01' E 020°22'  
Track history (hours):
 
Tides and Currents Weather Stations Pressure Air Temp Water Temp Dewpoint Dewpoint Depression Visibility Wind Speed Wind Dir Waves Ship Positions

Milan

Last reported at 2018-Jul-23 06:01 UTC. Time now 2018-Jul-23 05:58 UTC.
Position N 44°50' E 020°30'.

Length 29 m.

Type: Cargo ship. MMSI: 279202484.

Date/timePositionNaut miles runAvg speedWind from/ knotsBaromVisibWave heightAir tempDewpointWater temp
2018-Jul-23 06:01N 44°50' E 020°30'2 3.2
2018-Jul-23 05:31N 44°50' E 020°33'2 3.2
2018-Jul-23 05:01N 44°51' E 020°35'2 3.1
2018-Jul-23 04:31N 44°51' E 020°37'2 3.0
2018-Jul-23 04:00N 44°50' E 020°38'1 3.0
2018-Jul-23 03:30N 44°49' E 020°39'2 3.2
2018-Jul-23 03:00N 44°47' E 020°38'2 3.2
2018-Jul-23 02:30N 44°46' E 020°38'2 3.1
2018-Jul-23 02:00N 44°45' E 020°39'10 2.9
2018-Jul-22 22:37N 44°40' E 020°51'0 3.4
2018-Jul-22 22:30N 44°40' E 020°52'2 3.2
2018-Jul-22 22:00N 44°40' E 020°54'2 3.2
2018-Jul-22 21:30N 44°41' E 020°56'2 3.3
2018-Jul-22 21:00N 44°42' E 020°58'2 3.3
2018-Jul-22 20:30N 44°43' E 020°60'2 3.1
2018-Jul-22 20:00N 44°43' E 021°02'2 3.2
2018-Jul-22 19:30N 44°43' E 021°04'2 3.1
2018-Jul-22 19:00N 44°44' E 021°06'2 3.1
2018-Jul-22 18:30N 44°44' E 021°08'4 0.3
2018-Jul-22 03:30N 44°43' E 021°03'3 4.8
2018-Jul-22 02:51N 44°42' E 020°58'11 2.4
2018-Jul-21 22:12N 44°42' E 020°43'1 5.0
2018-Jul-21 22:00N 44°43' E 020°42'2 4.9
2018-Jul-21 21:30N 44°44' E 020°40'2 4.7
2018-Jul-21 21:00N 44°46' E 020°38'2 3.4
2018-Jul-21 20:30N 44°48' E 020°38'0 0.9
2018-Jul-21 20:00N 44°48' E 020°38'1 1.5
2018-Jul-21 19:30N 44°49' E 020°37'1 2.4
2018-Jul-21 19:00N 44°48' E 020°38'2 3.3
2018-Jul-21 18:30N 44°49' E 020°39'2 5.0
2018-Jul-21 18:01N 44°51' E 020°37'3 5.4
2018-Jul-21 17:31N 44°50' E 020°33'2 4.7
2018-Jul-21 17:01N 44°50' E 020°30'1 1.8
2018-Jul-21 16:31N 44°49' E 020°31'0 0.0
2018-Jul-21 16:01N 44°49' E 020°31'0 0.0
2018-Jul-21 15:31N 44°49' E 020°31'0 0.6
2018-Jul-21 15:01N 44°50' E 020°31'2 3.8
2018-Jul-21 14:31N 44°50' E 020°28'2 3.8
2018-Jul-21 14:01N 44°48' E 020°27'2 5.0
2018-Jul-21 13:31N 44°48' E 020°23'3 5.1
2018-Jul-21 13:01N 44°46' E 020°21'2 3.0
2018-Jul-21 12:30N 44°45' E 020°19'0 0.1
2018-Jul-21 12:00N 44°45' E 020°19'0 0.0
2018-Jul-21 11:31N 44°45' E 020°19'0 0.0
2018-Jul-21 11:01N 44°45' E 020°19'0 0.0
2018-Jul-21 10:30N 44°45' E 020°19'0 0.0
2018-Jul-21 10:00N 44°45' E 020°19'0 0.3
2018-Jul-21 09:31N 44°45' E 020°19'0 0.4
2018-Jul-21 09:01N 44°45' E 020°19'0 0.0
2018-Jul-21 08:30N 44°45' E 020°19'0 0.0
2018-Jul-21 08:00N 44°45' E 020°19'0 0.0
2018-Jul-21 07:30N 44°45' E 020°19'0 0.0
2018-Jul-21 07:00N 44°45' E 020°19'1 1.4
2018-Jul-21 06:31N 44°45' E 020°20'2 3.1
2018-Jul-21 06:01N 44°46' E 020°21'2 3.2
2018-Jul-21 05:31N 44°47' E 020°23'1 2.9
2018-Jul-21 05:01N 44°48' E 020°25'1 2.9
2018-Jul-21 04:30N 44°48' E 020°26'1 2.7
2018-Jul-21 04:01N 44°50' E 020°27'1 2.5
2018-Jul-21 03:31N 44°50' E 020°28'1 2.6
2018-Jul-21 03:01N 44°50' E 020°30'0 0.1
2018-Jul-21 02:31N 44°50' E 020°30'2 3.2
2018-Jul-21 02:01N 44°50' E 020°28'2 3.6
2018-Jul-21 01:30N 44°48' E 020°27'2 4.6
2018-Jul-21 01:01N 44°48' E 020°24'2 4.6
2018-Jul-21 00:31N 44°46' E 020°21'2 3.9
2018-Jul-21 00:01N 44°45' E 020°19'0 0.5
2018-Jul-20 23:31N 44°45' E 020°19'0 0.0
2018-Jul-20 23:00N 44°45' E 020°19'0 0.0
2018-Jul-20 22:30N 44°45' E 020°19'0 0.0
2018-Jul-20 22:00N 44°45' E 020°19'0 0.0
2018-Jul-20 21:31N 44°45' E 020°19'0 0.3
2018-Jul-20 21:00N 44°45' E 020°19'0 0.3
2018-Jul-20 20:30N 44°45' E 020°19'0 0.0
2018-Jul-20 20:00N 44°45' E 020°19'0 0.0
2018-Jul-20 19:30N 44°45' E 020°19'0 0.0
2018-Jul-20 19:00N 44°45' E 020°19'0 0.7
2018-Jul-20 18:31N 44°45' E 020°19'0 0.3
2018-Jul-20 18:01N 44°45' E 020°19'0 0.5
2018-Jul-20 17:30N 44°45' E 020°20'0 0.0
2018-Jul-20 17:01N 44°45' E 020°20'0 0.0
2018-Jul-20 16:31N 44°45' E 020°20'0 0.0
2018-Jul-20 16:01N 44°45' E 020°20'0 0.0
2018-Jul-20 15:31N 44°45' E 020°20'0 0.0
2018-Jul-20 15:00N 44°45' E 020°20'0 0.0
2018-Jul-20 14:30N 44°45' E 020°20'0 0.0
2018-Jul-20 14:00N 44°45' E 020°20'0 0.0
2018-Jul-20 13:30N 44°45' E 020°20'0 0.0
2018-Jul-20 13:00N 44°45' E 020°20'0 0.0
2018-Jul-20 12:31N 44°45' E 020°20'0 0.0
2018-Jul-20 12:00N 44°45' E 020°20'0 0.0
2018-Jul-20 11:31N 44°45' E 020°20'0 0.0
2018-Jul-20 11:01N 44°45' E 020°20'0 0.0
2018-Jul-20 10:31N 44°45' E 020°20'0 0.0
2018-Jul-20 10:00N 44°45' E 020°20'0 0.0
2018-Jul-20 09:31N 44°45' E 020°20'0 0.0
2018-Jul-20 09:01N 44°45' E 020°20'0 0.0
2018-Jul-20 08:31N 44°45' E 020°20'0 0.0
2018-Jul-20 08:01N 44°45' E 020°20'0 0.4
2018-Jul-20 07:30N 44°45' E 020°20'0 0.9
2018-Jul-20 07:00N 44°45' E 020°19'1 2.8
2018-Jul-20 06:30N 44°46' E 020°21'1 3.0
2018-Jul-20 06:00N 44°47' E 020°22'2 3.0
2018-Jul-20 05:31N 44°46' E 020°21'1 2.3
2018-Jul-20 05:01N 44°45' E 020°20'0 0.0
2018-Jul-20 04:31N 44°45' E 020°20'0 0.0
2018-Jul-20 04:00N 44°45' E 020°20'0 0.8
2018-Jul-20 03:30N 44°45' E 020°20'2 3.4
2018-Jul-20 03:01N 44°46' E 020°21'2 3.4
2018-Jul-20 02:30N 44°48' E 020°23'2 3.2
2018-Jul-20 02:01N 44°48' E 020°25'1 2.9
2018-Jul-20 01:31N 44°49' E 020°27'1 2.5
2018-Jul-20 01:00N 44°50' E 020°27'2 3.0
2018-Jul-20 00:30N 44°50' E 020°29'2 3.1
2018-Jul-20 00:00N 44°50' E 020°32'2 3.1
2018-Jul-19 23:30N 44°51' E 020°34'1 2.8
2018-Jul-19 23:01N 44°51' E 020°35'1 2.9
2018-Jul-19 22:31N 44°51' E 020°37'2 3.0
2018-Jul-19 21:59N 44°50' E 020°39'1 3.1
2018-Jul-19 21:31N 44°48' E 020°38'2 3.2
2018-Jul-19 21:01N 44°47' E 020°38'2 3.0
2018-Jul-19 20:30N 44°45' E 020°38'1 3.0
2018-Jul-19 20:01N 44°44' E 020°40'1 3.0
2018-Jul-19 19:31N 44°43' E 020°41'2 3.0
2018-Jul-19 19:01N 44°42' E 020°42'2 3.1
2018-Jul-19 18:31N 44°41' E 020°43'1 1.0
2018-Jul-19 17:52N 44°40' E 020°44'0 0.0
2018-Jul-19 17:25N 44°40' E 020°44'0 0.0
2018-Jul-19 16:58N 44°40' E 020°44'0 0.0
2018-Jul-19 16:24N 44°40' E 020°44'0 0.0
2018-Jul-19 16:00N 44°40' E 020°44'0 0.4
2018-Jul-19 15:30N 44°40' E 020°44'1 2.1
2018-Jul-19 15:00N 44°40' E 020°45'1 2.2
2018-Jul-19 14:31N 44°39' E 020°47'2 2.0
2018-Jul-19 13:29N 44°39' E 020°50'1 2.4
2018-Jul-19 13:01N 44°40' E 020°51'1 2.3
2018-Jul-19 12:31N 44°40' E 020°53'1 2.3
2018-Jul-19 12:01N 44°40' E 020°54'1 2.1
2018-Jul-19 11:30N 44°41' E 020°56'1 2.3
2018-Jul-19 11:00N 44°42' E 020°57'1 2.3
2018-Jul-19 10:31N 44°42' E 020°58'1 2.2
2018-Jul-19 10:01N 44°43' E 020°59'1 2.0
2018-Jul-19 09:31N 44°43' E 021°01'1 2.0
2018-Jul-19 09:01N 44°43' E 021°02'1 2.0
2018-Jul-19 08:31N 44°43' E 021°03'1 2.3
2018-Jul-19 08:00N 44°43' E 021°05'14 0.9
2018-Jul-18 15:50N 44°47' E 021°24'2 3.5
2018-Jul-18 15:18N 44°46' E 021°27'2 3.3
2018-Jul-18 14:40N 44°46' E 021°29'1 3.7
2018-Jul-18 14:29N 44°46' E 021°30'1 0.5
2018-Jul-18 11:27N 44°46' E 021°32'3 3.2
2018-Jul-18 10:30N 44°45' E 021°36'1 1.2
2018-Jul-18 09:17N 44°43' E 021°37'0 1.1
2018-Jul-18 09:00N 44°44' E 021°37'2 1.3
2018-Jul-18 07:34N 44°42' E 021°39'0 0.0
2018-Jul-18 07:31N 44°42' E 021°39'0 0.0
2018-Jul-18 06:28N 44°42' E 021°39'1 0.5
2018-Jul-18 05:16N 44°43' E 021°38'1 3.3
2018-Jul-18 05:01N 44°43' E 021°37'1 1.1
2018-Jul-18 04:11N 44°44' E 021°37'0 0.0
2018-Jul-18 04:00N 44°44' E 021°37'1 0.5
2018-Jul-18 01:08N 44°43' E 021°38'1 4.2
2018-Jul-18 01:01N 44°42' E 021°39'0 0.2
2018-Jul-18 00:31N 44°42' E 021°39'0 0.0
2018-Jul-18 00:01N 44°42' E 021°39'0 0.0
2018-Jul-17 23:30N 44°42' E 021°39'0 0.0
2018-Jul-17 23:01N 44°42' E 021°39'0 0.0
2018-Jul-17 22:31N 44°42' E 021°39'2 2.1
2018-Jul-17 21:46N 44°43' E 021°37'1 2.1
2018-Jul-17 21:31N 44°44' E 021°37'0 0.2
2018-Jul-17 21:01N 44°44' E 021°37'0 0.0
2018-Jul-17 20:31N 44°44' E 021°37'0 0.0
2018-Jul-17 20:01N 44°44' E 021°37'0 0.0
2018-Jul-17 19:31N 44°44' E 021°37'0 0.0
2018-Jul-17 19:01N 44°44' E 021°37'0 0.0
2018-Jul-17 18:29N 44°44' E 021°37'0 0.0
2018-Jul-17 18:01N 44°44' E 021°37'0 0.0
2018-Jul-17 17:30N 44°44' E 021°37'0 0.1
2018-Jul-17 12:26N 44°43' E 021°37'0 0.0
2018-Jul-17 12:01N 44°43' E 021°37'0 0.5
2018-Jul-17 11:31N 44°44' E 021°37'1 1.1
2018-Jul-17 11:01N 44°44' E 021°36'2 4.3
2018-Jul-17 10:31N 44°46' E 021°35'3 3.3
2018-Jul-17 09:37N 44°46' E 021°31'0 0.0
2018-Jul-17 09:30N 44°46' E 021°31'1 0.1
2018-Jul-16 19:36N 44°46' E 021°29'0 4.7
2018-Jul-16 19:30N 44°47' E 021°28'2 4.5
2018-Jul-16 18:59N 44°46' E 021°25'32 1.9
2018-Jul-16 01:52N 44°44' E 020°40'3 4.5
2018-Jul-16 01:14N 44°47' E 020°38'1 4.7
2018-Jul-16 01:00N 44°48' E 020°38'2 4.6
2018-Jul-16 00:30N 44°50' E 020°39'1 1.5
2018-Jul-16 00:00N 44°51' E 020°38'0 0.9
2018-Jul-15 23:29N 44°51' E 020°38'0 0.9
2018-Jul-15 23:00N 44°51' E 020°38'0 0.1
2018-Jul-15 20:16N 44°51' E 020°38'0 0.2
2018-Jul-15 20:00N 44°51' E 020°38'0 0.6
2018-Jul-15 19:30N 44°51' E 020°38'0 0.7
2018-Jul-15 19:01N 44°51' E 020°38'0 0.0
2018-Jul-15 18:31N 44°51' E 020°38'0 0.0
2018-Jul-15 18:00N 44°51' E 020°38'0 0.0
2018-Jul-15 17:30N 44°51' E 020°38'0 0.0
2018-Jul-15 17:00N 44°51' E 020°38'0 0.1
2018-Jul-15 16:30N 44°51' E 020°38'1 1.1
2018-Jul-15 16:01N 44°51' E 020°38'0 0.4
2018-Jul-15 15:31N 44°51' E 020°38'0 0.0
2018-Jul-15 15:00N 44°51' E 020°38'0 0.0
2018-Jul-15 14:31N 44°51' E 020°38'0 0.0
2018-Jul-15 14:00N 44°51' E 020°38'0 0.0
2018-Jul-15 13:31N 44°51' E 020°38'0 0.0
2018-Jul-15 13:01N 44°51' E 020°38'0 0.0
2018-Jul-15 12:30N 44°51' E 020°38'1 2.7
2018-Jul-15 12:01N 44°50' E 020°39'2 3.1
2018-Jul-15 11:30N 44°48' E 020°38'2 3.1
2018-Jul-15 11:01N 44°47' E 020°38'1 3.0
2018-Jul-15 10:31N 44°45' E 020°38'2 3.1
2018-Jul-15 10:01N 44°44' E 020°40'2 3.0
2018-Jul-15 09:30N 44°43' E 020°42'3 3.2
2018-Jul-15 08:28N 44°40' E 020°44'1 3.2
2018-Jul-15 08:01N 44°40' E 020°46'2 3.2
2018-Jul-15 07:30N 44°40' E 020°48'2 3.3
2018-Jul-15 07:00N 44°40' E 020°51'2 3.4
2018-Jul-15 06:31N 44°40' E 020°53'6 3.1
2018-Jul-15 04:39N 44°43' E 020°60'0 2.8
2018-Jul-15 04:29N 44°43' E 021°01'1 3.0
2018-Jul-15 04:01N 44°43' E 021°02'9 2.9
2018-Jul-15 00:45N 44°47' E 021°14'3 3.3
2018-Jul-14 23:48N 44°49' E 021°18'1 3.5
2018-Jul-14 23:29N 44°49' E 021°20'9 1.0
2018-Jul-14 15:02N 44°45' E 021°09'12 5.5
2018-Jul-14 12:52N 44°40' E 020°54'2 6.0
2018-Jul-14 12:30N 44°39' E 020°51'3 6.0
2018-Jul-14 12:00N 44°40' E 020°47'3 5.3
2018-Jul-14 11:30N 44°41' E 020°43'1 1.2
2018-Jul-14 10:59N 44°40' E 020°44'0 0.0
2018-Jul-14 10:27N 44°40' E 020°44'0 0.0
2018-Jul-14 09:57N 44°40' E 020°44'1 1.9
2018-Jul-14 09:30N 44°41' E 020°43'3 5.4
2018-Jul-14 09:00N 44°43' E 020°41'3 5.5
2018-Jul-14 08:30N 44°45' E 020°38'3 5.2
2018-Jul-14 08:00N 44°48' E 020°38'3 5.3
2018-Jul-14 07:30N 44°50' E 020°39'3 5.1
2018-Jul-14 07:00N 44°51' E 020°35'3 5.7
2018-Jul-14 06:30N 44°50' E 020°32'1 2.8
2018-Jul-14 06:01N 44°50' E 020°30'1 2.6
2018-Jul-14 05:31N 44°50' E 020°28'3 6.5
2018-Jul-14 05:00N 44°51' E 020°24'3 6.4
2018-Jul-14 04:30N 44°54' E 020°21'3 6.4
2018-Jul-14 04:00N 44°56' E 020°18'3 6.0
2018-Jul-14 03:30N 44°59' E 020°18'3 6.3
2018-Jul-14 03:00N 45°01' E 020°22'3 6.3
2018-Jul-14 02:30N 45°04' E 020°21'3 6.9
2018-Jul-14 02:00N 45°07' E 020°18'3 5.7
2018-Jul-14 01:30N 45°09' E 020°17'2 4.2
2018-Jul-14 01:00N 45°11' E 020°19'8 4.8
2018-Jul-13 23:18N 45°19' E 020°15'1 4.1
2018-Jul-13 23:00N 45°20' E 020°16'2 4.6
2018-Jul-13 22:30N 45°22' E 020°14'2 4.5
2018-Jul-13 22:00N 45°24' E 020°12'0 0.2
2018-Jul-13 21:30N 45°24' E 020°12'0 0.0
2018-Jul-13 21:00N 45°24' E 020°12'0 0.0
2018-Jul-13 20:30N 45°24' E 020°12'0 0.0
2018-Jul-13 20:00N 45°24' E 020°12'0 0.1
2018-Jul-13 19:30N 45°24' E 020°12'0 0.0
2018-Jul-13 19:00N 45°24' E 020°12'0 0.2
2018-Jul-13 18:30N 45°24' E 020°12'0 0.0
2018-Jul-13 18:00N 45°24' E 020°12'0 0.1
2018-Jul-13 17:30N 45°24' E 020°12'1 1.7
2018-Jul-13 17:00N 45°23' E 020°12'1 2.9
2018-Jul-13 16:31N 45°22' E 020°14'2 3.1
2018-Jul-13 16:00N 45°21' E 020°15'1 2.1
2018-Jul-13 15:30N 45°20' E 020°16'7 2.5
2018-Jul-13 12:49N 45°14' E 020°19'1 3.0
2018-Jul-13 12:30N 45°13' E 020°19'2 3.0
2018-Jul-13 11:57N 45°11' E 020°18'1 2.9
2018-Jul-13 11:28N 45°10' E 020°17'3 2.6
2018-Jul-13 10:24N 45°08' E 020°17'1 2.1
2018-Jul-13 10:00N 45°07' E 020°17'1 2.3
2018-Jul-13 09:29N 45°06' E 020°18'2 1.7
2018-Jul-13 08:06N 45°04' E 020°20'0 2.2
2018-Jul-13 07:53N 45°04' E 020°21'1 2.1
2018-Jul-13 07:30N 45°03' E 020°21'1 2.2
2018-Jul-13 07:00N 45°02' E 020°22'1 1.9
2018-Jul-13 06:30N 45°01' E 020°22'  

Dump ship's entire track history